sensor_id;sensor_type;location;lat;lon;timestamp;P1;durP1;ratioP1;P2;durP2;ratioP2
40515;SDS011;26216;53.724;9.898;2023-05-10T00:00:53;2.70;;;1.90;;
40515;SDS011;26216;53.724;9.898;2023-05-10T00:03:19;4.22;;;2.47;;
40515;SDS011;26216;53.724;9.898;2023-05-10T00:05:45;4.13;;;2.00;;
40515;SDS011;26216;53.724;9.898;2023-05-10T00:08:11;4.13;;;2.40;;
40515;SDS011;26216;53.724;9.898;2023-05-10T00:10:37;4.03;;;2.40;;
40515;SDS011;26216;53.724;9.898;2023-05-10T00:13:03;3.17;;;2.20;;
40515;SDS011;26216;53.724;9.898;2023-05-10T00:15:29;3.85;;;2.40;;
40515;SDS011;26216;53.724;9.898;2023-05-10T00:17:57;3.38;;;2.28;;
40515;SDS011;26216;53.724;9.898;2023-05-10T00:20:23;3.42;;;2.20;;
40515;SDS011;26216;53.724;9.898;2023-05-10T00:22:49;4.00;;;1.88;;
40515;SDS011;26216;53.724;9.898;2023-05-10T00:25:15;2.88;;;2.00;;
40515;SDS011;26216;53.724;9.898;2023-05-10T00:27:41;3.17;;;2.30;;
40515;SDS011;26216;53.724;9.898;2023-05-10T00:30:07;3.45;;;2.03;;
40515;SDS011;26216;53.724;9.898;2023-05-10T00:32:33;4.75;;;2.60;;
40515;SDS011;26216;53.724;9.898;2023-05-10T00:34:59;3.75;;;2.13;;
40515;SDS011;26216;53.724;9.898;2023-05-10T00:37:25;2.90;;;1.98;;
40515;SDS011;26216;53.724;9.898;2023-05-10T00:39:50;3.22;;;1.92;;
40515;SDS011;26216;53.724;9.898;2023-05-10T00:42:16;2.78;;;1.90;;
40515;SDS011;26216;53.724;9.898;2023-05-10T00:44:42;3.95;;;1.92;;
40515;SDS011;26216;53.724;9.898;2023-05-10T00:47:08;3.38;;;1.73;;
40515;SDS011;26216;53.724;9.898;2023-05-10T00:49:34;5.15;;;1.98;;
40515;SDS011;26216;53.724;9.898;2023-05-10T00:52:01;2.75;;;2.00;;
40515;SDS011;26216;53.724;9.898;2023-05-10T00:54:28;5.70;;;2.55;;
40515;SDS011;26216;53.724;9.898;2023-05-10T00:56:54;4.03;;;1.80;;
40515;SDS011;26216;53.724;9.898;2023-05-10T00:59:22;4.28;;;2.33;;
40515;SDS011;26216;53.724;9.898;2023-05-10T01:01:47;2.67;;;1.85;;
40515;SDS011;26216;53.724;9.898;2023-05-10T01:04:13;3.35;;;2.47;;
40515;SDS011;26216;53.724;9.898;2023-05-10T01:06:40;3.15;;;2.47;;
40515;SDS011;26216;53.724;9.898;2023-05-10T01:09:07;4.72;;;2.20;;
40515;SDS011;26216;53.724;9.898;2023-05-10T01:11:33;3.10;;;2.03;;
40515;SDS011;26216;53.724;9.898;2023-05-10T01:14:00;3.67;;;2.00;;
40515;SDS011;26216;53.724;9.898;2023-05-10T01:16:27;4.85;;;2.22;;
40515;SDS011;26216;53.724;9.898;2023-05-10T01:18:57;3.42;;;2.08;;
40515;SDS011;26216;53.724;9.898;2023-05-10T01:21:27;4.00;;;2.33;;
40515;SDS011;26216;53.724;9.898;2023-05-10T01:37:41;3.40;;;1.92;;
40515;SDS011;26216;53.724;9.898;2023-05-10T01:40:32;3.55;;;2.20;;
40515;SDS011;26216;53.724;9.898;2023-05-10T01:43:03;2.47;;;1.83;;
40515;SDS011;26216;53.724;9.898;2023-05-10T01:48:37;3.20;;;2.10;;
40515;SDS011;26216;53.724;9.898;2023-05-10T01:51:05;3.13;;;2.28;;
40515;SDS011;26216;53.724;9.898;2023-05-10T01:53:33;3.33;;;2.17;;
40515;SDS011;26216;53.724;9.898;2023-05-10T01:56:02;2.85;;;2.00;;
40515;SDS011;26216;53.724;9.898;2023-05-10T01:58:30;2.55;;;1.98;;
40515;SDS011;26216;53.724;9.898;2023-05-10T02:00:59;2.47;;;1.90;;
40515;SDS011;26216;53.724;9.898;2023-05-10T02:03:28;3.47;;;2.10;;
40515;SDS011;26216;53.724;9.898;2023-05-10T02:05:57;2.80;;;2.05;;
40515;SDS011;26216;53.724;9.898;2023-05-10T02:08:24;3.05;;;2.30;;
40515;SDS011;26216;53.724;9.898;2023-05-10T02:10:52;4.18;;;2.20;;
40515;SDS011;26216;53.724;9.898;2023-05-10T02:13:20;2.78;;;1.83;;
40515;SDS011;26216;53.724;9.898;2023-05-10T02:15:48;4.53;;;2.10;;
40515;SDS011;26216;53.724;9.898;2023-05-10T02:18:16;2.72;;;1.88;;
40515;SDS011;26216;53.724;9.898;2023-05-10T02:20:43;3.22;;;1.92;;
40515;SDS011;26216;53.724;9.898;2023-05-10T02:23:12;3.33;;;1.98;;
40515;SDS011;26216;53.724;9.898;2023-05-10T02:25:41;3.42;;;2.20;;
40515;SDS011;26216;53.724;9.898;2023-05-10T02:28:08;3.28;;;2.15;;
40515;SDS011;26216;53.724;9.898;2023-05-10T02:30:37;2.97;;;2.20;;
40515;SDS011;26216;53.724;9.898;2023-05-10T02:33:04;2.80;;;2.03;;
40515;SDS011;26216;53.724;9.898;2023-05-10T02:35:34;3.40;;;1.98;;
40515;SDS011;26216;53.724;9.898;2023-05-10T02:38:01;2.58;;;2.00;;
40515;SDS011;26216;53.724;9.898;2023-05-10T02:40:27;3.25;;;2.10;;
40515;SDS011;26216;53.724;9.898;2023-05-10T02:42:54;2.30;;;1.80;;
40515;SDS011;26216;53.724;9.898;2023-05-10T02:45:24;4.38;;;2.70;;
40515;SDS011;26216;53.724;9.898;2023-05-10T02:47:53;3.58;;;2.10;;
40515;SDS011;26216;53.724;9.898;2023-05-10T02:50:19;3.65;;;2.28;;
40515;SDS011;26216;53.724;9.898;2023-05-10T02:52:47;3.30;;;2.67;;
40515;SDS011;26216;53.724;9.898;2023-05-10T02:55:19;2.60;;;1.83;;
40515;SDS011;26216;53.724;9.898;2023-05-10T02:58:00;2.88;;;1.90;;
40515;SDS011;26216;53.724;9.898;2023-05-10T03:00:27;4.15;;;2.38;;
40515;SDS011;26216;53.724;9.898;2023-05-10T03:02:53;4.05;;;2.00;;
40515;SDS011;26216;53.724;9.898;2023-05-10T03:05:19;2.97;;;2.22;;
40515;SDS011;26216;53.724;9.898;2023-05-10T03:07:45;3.97;;;2.10;;
40515;SDS011;26216;53.724;9.898;2023-05-10T03:10:12;2.70;;;2.20;;
40515;SDS011;26216;53.724;9.898;2023-05-10T03:16:15;3.40;;;2.30;;
40515;SDS011;26216;53.724;9.898;2023-05-10T03:18:48;3.25;;;2.30;;
40515;SDS011;26216;53.724;9.898;2023-05-10T03:21:20;4.15;;;2.17;;
40515;SDS011;26216;53.724;9.898;2023-05-10T03:23:51;2.72;;;1.90;;
40515;SDS011;26216;53.724;9.898;2023-05-10T03:26:30;3.30;;;2.08;;
40515;SDS011;26216;53.724;9.898;2023-05-10T03:28:57;3.08;;;2.05;;
40515;SDS011;26216;53.724;9.898;2023-05-10T03:31:24;3.50;;;2.45;;
40515;SDS011;26216;53.724;9.898;2023-05-10T03:33:51;3.20;;;2.00;;
40515;SDS011;26216;53.724;9.898;2023-05-10T03:36:18;3.92;;;2.22;;
40515;SDS011;26216;53.724;9.898;2023-05-10T03:38:44;2.53;;;1.95;;
40515;SDS011;26216;53.724;9.898;2023-05-10T03:41:10;2.95;;;1.80;;
40515;SDS011;26216;53.724;9.898;2023-05-10T03:43:36;4.65;;;2.50;;
40515;SDS011;26216;53.724;9.898;2023-05-10T03:46:02;4.20;;;2.10;;
40515;SDS011;26216;53.724;9.898;2023-05-10T03:48:29;4.65;;;2.30;;
40515;SDS011;26216;53.724;9.898;2023-05-10T03:50:55;2.97;;;2.15;;
40515;SDS011;26216;53.724;9.898;2023-05-10T03:53:21;2.92;;;2.00;;
40515;SDS011;26216;53.724;9.898;2023-05-10T03:55:48;2.50;;;1.85;;
40515;SDS011;26216;53.724;9.898;2023-05-10T03:58:14;3.08;;;1.90;;
40515;SDS011;26216;53.724;9.898;2023-05-10T04:00:40;3.03;;;2.25;;
40515;SDS011;26216;53.724;9.898;2023-05-10T04:03:10;2.63;;;2.00;;
40515;SDS011;26216;53.724;9.898;2023-05-10T04:05:37;3.33;;;2.17;;
40515;SDS011;26216;53.724;9.898;2023-05-10T04:08:03;3.88;;;2.00;;
40515;SDS011;26216;53.724;9.898;2023-05-10T04:10:29;3.10;;;2.00;;
40515;SDS011;26216;53.724;9.898;2023-05-10T04:12:55;4.07;;;2.28;;
40515;SDS011;26216;53.724;9.898;2023-05-10T04:15:21;3.33;;;1.90;;
40515;SDS011;26216;53.724;9.898;2023-05-10T04:17:47;3.65;;;2.17;;
40515;SDS011;26216;53.724;9.898;2023-05-10T04:20:14;3.78;;;2.10;;
40515;SDS011;26216;53.724;9.898;2023-05-10T04:22:40;2.97;;;2.17;;
40515;SDS011;26216;53.724;9.898;2023-05-10T04:25:06;3.95;;;2.53;;
40515;SDS011;26216;53.724;9.898;2023-05-10T04:27:33;3.97;;;2.20;;
40515;SDS011;26216;53.724;9.898;2023-05-10T04:29:59;3.20;;;2.38;;
40515;SDS011;26216;53.724;9.898;2023-05-10T04:32:25;3.47;;;2.15;;
40515;SDS011;26216;53.724;9.898;2023-05-10T04:34:51;3.42;;;2.28;;
40515;SDS011;26216;53.724;9.898;2023-05-10T04:37:17;3.08;;;2.20;;
40515;SDS011;26216;53.724;9.898;2023-05-10T04:39:43;3.03;;;2.22;;
40515;SDS011;26216;53.724;9.898;2023-05-10T04:42:09;2.90;;;2.20;;
40515;SDS011;26216;53.724;9.898;2023-05-10T04:44:37;3.90;;;2.33;;
40515;SDS011;26216;53.724;9.898;2023-05-10T04:47:03;3.72;;;2.30;;
40515;SDS011;26216;53.724;9.898;2023-05-10T04:49:31;3.05;;;2.03;;
40515;SDS011;26216;53.724;9.898;2023-05-10T04:51:57;3.15;;;2.00;;
40515;SDS011;26216;53.724;9.898;2023-05-10T04:54:23;4.32;;;2.20;;
40515;SDS011;26216;53.724;9.898;2023-05-10T04:56:50;3.58;;;2.30;;
40515;SDS011;26216;53.724;9.898;2023-05-10T04:59:18;4.38;;;2.20;;
40515;SDS011;26216;53.724;9.898;2023-05-10T05:01:46;2.70;;;2.30;;
40515;SDS011;26216;53.724;9.898;2023-05-10T05:04:12;3.38;;;2.13;;
40515;SDS011;26216;53.724;9.898;2023-05-10T05:06:41;4.35;;;2.30;;
40515;SDS011;26216;53.724;9.898;2023-05-10T05:09:10;4.00;;;2.47;;
40515;SDS011;26216;53.724;9.898;2023-05-10T05:11:37;3.88;;;2.38;;
40515;SDS011;26216;53.724;9.898;2023-05-10T05:14:03;2.95;;;2.15;;
40515;SDS011;26216;53.724;9.898;2023-05-10T05:16:30;3.05;;;2.08;;
40515;SDS011;26216;53.724;9.898;2023-05-10T05:18:58;3.25;;;2.00;;
40515;SDS011;26216;53.724;9.898;2023-05-10T05:21:27;3.22;;;2.10;;
40515;SDS011;26216;53.724;9.898;2023-05-10T05:23:55;3.28;;;2.13;;
40515;SDS011;26216;53.724;9.898;2023-05-10T05:26:22;3.42;;;2.65;;
40515;SDS011;26216;53.724;9.898;2023-05-10T05:28:50;5.32;;;2.38;;
40515;SDS011;26216;53.724;9.898;2023-05-10T05:31:20;3.60;;;2.13;;
40515;SDS011;26216;53.724;9.898;2023-05-10T05:33:47;4.07;;;2.63;;
40515;SDS011;26216;53.724;9.898;2023-05-10T05:36:20;3.25;;;2.45;;
40515;SDS011;26216;53.724;9.898;2023-05-10T05:38:47;5.05;;;2.33;;
40515;SDS011;26216;53.724;9.898;2023-05-10T05:41:16;3.03;;;2.28;;
40515;SDS011;26216;53.724;9.898;2023-05-10T05:43:42;3.45;;;2.45;;
40515;SDS011;26216;53.724;9.898;2023-05-10T05:46:10;3.90;;;2.85;;
40515;SDS011;26216;53.724;9.898;2023-05-10T05:48:37;3.05;;;2.20;;
40515;SDS011;26216;53.724;9.898;2023-05-10T05:51:06;2.80;;;2.10;;
40515;SDS011;26216;53.724;9.898;2023-05-10T05:53:37;3.03;;;2.10;;
40515;SDS011;26216;53.724;9.898;2023-05-10T05:56:05;4.32;;;2.58;;
40515;SDS011;26216;53.724;9.898;2023-05-10T05:58:34;3.22;;;2.40;;
40515;SDS011;26216;53.724;9.898;2023-05-10T06:01:02;3.20;;;2.55;;
40515;SDS011;26216;53.724;9.898;2023-05-10T06:03:30;4.18;;;2.25;;
40515;SDS011;26216;53.724;9.898;2023-05-10T06:06:00;2.92;;;1.92;;
40515;SDS011;26216;53.724;9.898;2023-05-10T06:08:30;2.90;;;2.40;;
40515;SDS011;26216;53.724;9.898;2023-05-10T06:11:00;3.38;;;2.20;;
40515;SDS011;26216;53.724;9.898;2023-05-10T06:13:29;3.83;;;2.88;;
40515;SDS011;26216;53.724;9.898;2023-05-10T06:16:06;2.20;;;2.00;;
40515;SDS011;26216;53.724;9.898;2023-05-10T06:18:37;3.42;;;2.10;;
40515;SDS011;26216;53.724;9.898;2023-05-10T06:21:04;3.90;;;2.67;;
40515;SDS011;26216;53.724;9.898;2023-05-10T06:23:31;3.22;;;2.40;;
40515;SDS011;26216;53.724;9.898;2023-05-10T06:25:58;3.00;;;2.53;;
40515;SDS011;26216;53.724;9.898;2023-05-10T06:28:25;3.70;;;2.42;;
40515;SDS011;26216;53.724;9.898;2023-05-10T06:30:52;5.35;;;2.42;;
40515;SDS011;26216;53.724;9.898;2023-05-10T06:33:22;5.28;;;2.95;;
40515;SDS011;26216;53.724;9.898;2023-05-10T06:35:53;2.55;;;2.08;;
40515;SDS011;26216;53.724;9.898;2023-05-10T06:38:19;3.17;;;2.03;;
40515;SDS011;26216;53.724;9.898;2023-05-10T06:40:51;2.42;;;1.90;;
40515;SDS011;26216;53.724;9.898;2023-05-10T06:43:22;3.30;;;1.85;;
40515;SDS011;26216;53.724;9.898;2023-05-10T06:45:50;3.33;;;1.90;;
40515;SDS011;26216;53.724;9.898;2023-05-10T06:48:19;4.03;;;2.40;;
40515;SDS011;26216;53.724;9.898;2023-05-10T06:50:47;3.10;;;2.30;;
40515;SDS011;26216;53.724;9.898;2023-05-10T06:53:14;3.92;;;2.50;;
40515;SDS011;26216;53.724;9.898;2023-05-10T06:55:43;2.72;;;2.38;;
40515;SDS011;26216;53.724;9.898;2023-05-10T06:58:11;2.70;;;2.20;;
40515;SDS011;26216;53.724;9.898;2023-05-10T07:00:38;3.45;;;2.45;;
40515;SDS011;26216;53.724;9.898;2023-05-10T07:03:09;2.70;;;2.17;;
40515;SDS011;26216;53.724;9.898;2023-05-10T07:05:45;3.78;;;2.50;;
40515;SDS011;26216;53.724;9.898;2023-05-10T07:08:13;3.92;;;2.30;;
40515;SDS011;26216;53.724;9.898;2023-05-10T07:10:40;4.97;;;2.67;;
40515;SDS011;26216;53.724;9.898;2023-05-10T07:13:14;4.53;;;2.13;;
40515;SDS011;26216;53.724;9.898;2023-05-10T07:15:41;3.88;;;2.30;;
40515;SDS011;26216;53.724;9.898;2023-05-10T07:18:08;4.25;;;2.03;;
40515;SDS011;26216;53.724;9.898;2023-05-10T07:20:36;3.42;;;2.33;;
40515;SDS011;26216;53.724;9.898;2023-05-10T07:23:04;3.97;;;2.20;;
40515;SDS011;26216;53.724;9.898;2023-05-10T07:25:33;2.85;;;2.38;;
40515;SDS011;26216;53.724;9.898;2023-05-10T07:28:04;4.60;;;2.47;;
40515;SDS011;26216;53.724;9.898;2023-05-10T07:30:43;3.58;;;2.40;;
40515;SDS011;26216;53.724;9.898;2023-05-10T07:33:12;3.20;;;2.35;;
40515;SDS011;26216;53.724;9.898;2023-05-10T07:35:40;3.60;;;2.30;;
40515;SDS011;26216;53.724;9.898;2023-05-10T07:38:14;2.95;;;2.08;;
40515;SDS011;26216;53.724;9.898;2023-05-10T07:40:44;3.72;;;1.90;;
40515;SDS011;26216;53.724;9.898;2023-05-10T07:43:15;2.20;;;1.90;;
40515;SDS011;26216;53.724;9.898;2023-05-10T07:45:50;4.07;;;2.22;;
40515;SDS011;26216;53.724;9.898;2023-05-10T07:48:20;3.88;;;2.20;;
40515;SDS011;26216;53.724;9.898;2023-05-10T07:50:48;2.78;;;2.10;;
40515;SDS011;26216;53.724;9.898;2023-05-10T07:53:20;4.05;;;2.22;;
40515;SDS011;26216;53.724;9.898;2023-05-10T07:55:58;3.67;;;2.40;;
40515;SDS011;26216;53.724;9.898;2023-05-10T07:58:40;3.20;;;2.58;;
40515;SDS011;26216;53.724;9.898;2023-05-10T08:01:06;2.53;;;2.15;;
40515;SDS011;26216;53.724;9.898;2023-05-10T08:03:36;4.05;;;2.33;;
40515;SDS011;26216;53.724;9.898;2023-05-10T08:06:04;3.38;;;2.20;;
40515;SDS011;26216;53.724;9.898;2023-05-10T08:08:31;4.50;;;2.25;;
40515;SDS011;26216;53.724;9.898;2023-05-10T08:11:07;3.00;;;2.50;;
40515;SDS011;26216;53.724;9.898;2023-05-10T08:13:35;4.15;;;2.65;;
40515;SDS011;26216;53.724;9.898;2023-05-10T08:16:03;2.40;;;1.70;;
40515;SDS011;26216;53.724;9.898;2023-05-10T08:18:31;3.05;;;2.13;;
40515;SDS011;26216;53.724;9.898;2023-05-10T08:20:59;3.95;;;2.53;;
40515;SDS011;26216;53.724;9.898;2023-05-10T08:23:30;3.33;;;2.30;;
40515;SDS011;26216;53.724;9.898;2023-05-10T08:26:00;3.05;;;2.45;;
40515;SDS011;26216;53.724;9.898;2023-05-10T08:28:26;3.80;;;2.40;;
40515;SDS011;26216;53.724;9.898;2023-05-10T08:30:52;3.85;;;2.65;;
40515;SDS011;26216;53.724;9.898;2023-05-10T08:33:18;3.08;;;2.20;;
40515;SDS011;26216;53.724;9.898;2023-05-10T08:35:44;2.80;;;2.40;;
40515;SDS011;26216;53.724;9.898;2023-05-10T08:38:10;3.28;;;2.60;;
40515;SDS011;26216;53.724;9.898;2023-05-10T08:40:36;3.45;;;2.13;;
40515;SDS011;26216;53.724;9.898;2023-05-10T08:43:06;6.18;;;2.58;;
40515;SDS011;26216;53.724;9.898;2023-05-10T08:45:36;6.72;;;2.38;;
40515;SDS011;26216;53.724;9.898;2023-05-10T08:48:07;3.17;;;2.42;;
40515;SDS011;26216;53.724;9.898;2023-05-10T08:50:35;2.83;;;2.40;;
40515;SDS011;26216;53.724;9.898;2023-05-10T08:53:03;3.58;;;2.78;;
40515;SDS011;26216;53.724;9.898;2023-05-10T08:55:34;2.55;;;2.10;;
40515;SDS011;26216;53.724;9.898;2023-05-10T08:58:02;2.63;;;2.20;;
40515;SDS011;26216;53.724;9.898;2023-05-10T09:00:28;3.15;;;2.42;;
40515;SDS011;26216;53.724;9.898;2023-05-10T09:02:55;3.05;;;2.30;;
40515;SDS011;26216;53.724;9.898;2023-05-10T09:05:22;2.55;;;2.00;;
40515;SDS011;26216;53.724;9.898;2023-05-10T09:07:48;3.28;;;2.58;;
40515;SDS011;26216;53.724;9.898;2023-05-10T09:10:15;4.22;;;2.05;;
40515;SDS011;26216;53.724;9.898;2023-05-10T09:12:41;5.00;;;2.30;;
40515;SDS011;26216;53.724;9.898;2023-05-10T09:15:10;3.10;;;2.20;;
40515;SDS011;26216;53.724;9.898;2023-05-10T09:17:38;3.30;;;2.33;;
40515;SDS011;26216;53.724;9.898;2023-05-10T09:20:05;3.60;;;2.40;;
40515;SDS011;26216;53.724;9.898;2023-05-10T09:22:32;4.03;;;2.60;;
40515;SDS011;26216;53.724;9.898;2023-05-10T09:27:38;4.10;;;2.50;;
40515;SDS011;26216;53.724;9.898;2023-05-10T09:30:05;3.33;;;2.45;;
40515;SDS011;26216;53.724;9.898;2023-05-10T09:32:39;3.75;;;2.53;;
40515;SDS011;26216;53.724;9.898;2023-05-10T09:35:13;4.00;;;2.35;;
40515;SDS011;26216;53.724;9.898;2023-05-10T09:37:40;3.00;;;2.47;;
40515;SDS011;26216;53.724;9.898;2023-05-10T09:40:08;3.70;;;2.00;;
40515;SDS011;26216;53.724;9.898;2023-05-10T09:42:37;3.60;;;2.30;;
40515;SDS011;26216;53.724;9.898;2023-05-10T09:45:04;3.42;;;2.65;;
40515;SDS011;26216;53.724;9.898;2023-05-10T09:47:36;3.72;;;2.60;;
40515;SDS011;26216;53.724;9.898;2023-05-10T09:50:02;5.30;;;2.75;;
40515;SDS011;26216;53.724;9.898;2023-05-10T09:52:30;5.05;;;2.80;;
40515;SDS011;26216;53.724;9.898;2023-05-10T09:55:10;3.35;;;2.80;;
40515;SDS011;26216;53.724;9.898;2023-05-10T09:57:36;3.58;;;2.60;;
40515;SDS011;26216;53.724;9.898;2023-05-10T10:00:02;3.53;;;2.58;;
40515;SDS011;26216;53.724;9.898;2023-05-10T10:02:31;4.40;;;2.90;;
40515;SDS011;26216;53.724;9.898;2023-05-10T10:04:57;2.85;;;2.30;;
40515;SDS011;26216;53.724;9.898;2023-05-10T10:07:26;3.05;;;2.55;;
40515;SDS011;26216;53.724;9.898;2023-05-10T10:09:52;3.88;;;2.60;;
40515;SDS011;26216;53.724;9.898;2023-05-10T10:12:20;3.60;;;2.67;;
40515;SDS011;26216;53.724;9.898;2023-05-10T10:14:50;3.38;;;2.60;;
40515;SDS011;26216;53.724;9.898;2023-05-10T10:17:17;2.90;;;2.35;;
40515;SDS011;26216;53.724;9.898;2023-05-10T10:19:45;3.28;;;2.63;;
40515;SDS011;26216;53.724;9.898;2023-05-10T10:22:11;2.75;;;2.33;;
40515;SDS011;26216;53.724;9.898;2023-05-10T10:24:38;3.80;;;2.60;;
40515;SDS011;26216;53.724;9.898;2023-05-10T10:27:20;3.67;;;2.63;;
40515;SDS011;26216;53.724;9.898;2023-05-10T10:30:00;2.67;;;2.22;;
40515;SDS011;26216;53.724;9.898;2023-05-10T10:35:46;3.88;;;2.53;;
40515;SDS011;26216;53.724;9.898;2023-05-10T10:38:13;4.18;;;2.60;;
40515;SDS011;26216;53.724;9.898;2023-05-10T10:40:39;3.42;;;2.35;;
40515;SDS011;26216;53.724;9.898;2023-05-10T10:43:24;2.97;;;2.50;;
40515;SDS011;26216;53.724;9.898;2023-05-10T10:48:35;4.40;;;2.88;;
40515;SDS011;26216;53.724;9.898;2023-05-10T10:51:01;3.40;;;2.60;;
40515;SDS011;26216;53.724;9.898;2023-05-10T10:53:28;4.05;;;2.80;;
40515;SDS011;26216;53.724;9.898;2023-05-10T10:56:08;3.58;;;2.72;;
40515;SDS011;26216;53.724;9.898;2023-05-10T10:58:40;2.83;;;2.42;;
40515;SDS011;26216;53.724;9.898;2023-05-10T11:01:16;3.78;;;3.03;;
40515;SDS011;26216;53.724;9.898;2023-05-10T11:09:05;3.38;;;2.92;;
40515;SDS011;26216;53.724;9.898;2023-05-10T11:11:35;3.92;;;2.85;;
40515;SDS011;26216;53.724;9.898;2023-05-10T11:14:13;3.80;;;3.03;;
40515;SDS011;26216;53.724;9.898;2023-05-10T11:16:42;3.80;;;2.75;;
40515;SDS011;26216;53.724;9.898;2023-05-10T11:19:10;3.47;;;2.70;;
40515;SDS011;26216;53.724;9.898;2023-05-10T11:21:47;4.07;;;3.33;;
40515;SDS011;26216;53.724;9.898;2023-05-10T11:24:16;3.92;;;3.10;;
40515;SDS011;26216;53.724;9.898;2023-05-10T11:26:48;4.80;;;3.20;;
40515;SDS011;26216;53.724;9.898;2023-05-10T11:29:15;3.65;;;3.00;;
40515;SDS011;26216;53.724;9.898;2023-05-10T11:31:43;4.32;;;3.17;;
40515;SDS011;26216;53.724;9.898;2023-05-10T11:34:10;4.45;;;3.17;;
40515;SDS011;26216;53.724;9.898;2023-05-10T11:36:36;3.63;;;3.15;;
40515;SDS011;26216;53.724;9.898;2023-05-10T11:39:02;4.10;;;3.08;;
40515;SDS011;26216;53.724;9.898;2023-05-10T11:41:30;3.95;;;3.30;;
40515;SDS011;26216;53.724;9.898;2023-05-10T11:43:56;3.97;;;3.40;;
40515;SDS011;26216;53.724;9.898;2023-05-10T11:46:24;4.03;;;3.33;;
40515;SDS011;26216;53.724;9.898;2023-05-10T11:48:52;4.95;;;3.05;;
40515;SDS011;26216;53.724;9.898;2023-05-10T11:51:29;4.32;;;3.67;;
40515;SDS011;26216;53.724;9.898;2023-05-10T11:54:04;4.15;;;2.97;;
40515;SDS011;26216;53.724;9.898;2023-05-10T11:56:32;4.65;;;3.42;;
40515;SDS011;26216;53.724;9.898;2023-05-10T11:58:58;3.60;;;3.03;;
40515;SDS011;26216;53.724;9.898;2023-05-10T12:01:27;4.88;;;4.03;;
40515;SDS011;26216;53.724;9.898;2023-05-10T12:03:54;3.90;;;3.50;;
40515;SDS011;26216;53.724;9.898;2023-05-10T12:08:54;4.22;;;3.40;;
40515;SDS011;26216;53.724;9.898;2023-05-10T12:11:23;3.80;;;3.38;;
40515;SDS011;26216;53.724;9.898;2023-05-10T12:13:50;4.80;;;3.90;;
40515;SDS011;26216;53.724;9.898;2023-05-10T12:16:17;3.97;;;3.25;;
40515;SDS011;26216;53.724;9.898;2023-05-10T12:18:50;5.65;;;3.67;;
40515;SDS011;26216;53.724;9.898;2023-05-10T12:21:17;3.90;;;3.38;;
40515;SDS011;26216;53.724;9.898;2023-05-10T12:23:45;4.68;;;3.60;;
40515;SDS011;26216;53.724;9.898;2023-05-10T12:26:12;4.43;;;3.45;;
40515;SDS011;26216;53.724;9.898;2023-05-10T12:28:38;3.92;;;3.25;;
40515;SDS011;26216;53.724;9.898;2023-05-10T12:31:07;3.90;;;3.33;;
40515;SDS011;26216;53.724;9.898;2023-05-10T12:33:37;4.28;;;3.60;;
40515;SDS011;26216;53.724;9.898;2023-05-10T12:36:10;4.35;;;3.22;;
40515;SDS011;26216;53.724;9.898;2023-05-10T12:38:38;3.75;;;3.30;;
40515;SDS011;26216;53.724;9.898;2023-05-10T12:41:08;4.00;;;3.55;;
40515;SDS011;26216;53.724;9.898;2023-05-10T12:43:36;3.80;;;3.08;;
40515;SDS011;26216;53.724;9.898;2023-05-10T12:48:32;3.83;;;3.40;;
40515;SDS011;26216;53.724;9.898;2023-05-10T12:50:59;4.35;;;3.45;;
40515;SDS011;26216;53.724;9.898;2023-05-10T12:53:26;4.38;;;3.45;;
40515;SDS011;26216;53.724;9.898;2023-05-10T12:55:52;3.60;;;3.30;;
40515;SDS011;26216;53.724;9.898;2023-05-10T12:58:18;3.78;;;3.38;;
40515;SDS011;26216;53.724;9.898;2023-05-10T13:00:45;4.15;;;3.75;;
40515;SDS011;26216;53.724;9.898;2023-05-10T13:03:11;3.35;;;3.05;;
40515;SDS011;26216;53.724;9.898;2023-05-10T13:05:37;3.70;;;2.90;;
40515;SDS011;26216;53.724;9.898;2023-05-10T13:08:04;3.15;;;2.70;;
40515;SDS011;26216;53.724;9.898;2023-05-10T13:10:30;3.47;;;2.80;;
40515;SDS011;26216;53.724;9.898;2023-05-10T13:12:57;2.83;;;2.53;;
40515;SDS011;26216;53.724;9.898;2023-05-10T13:15:23;3.35;;;2.72;;
40515;SDS011;26216;53.724;9.898;2023-05-10T13:17:49;2.40;;;2.20;;
40515;SDS011;26216;53.724;9.898;2023-05-10T13:20:15;2.60;;;2.05;;
40515;SDS011;26216;53.724;9.898;2023-05-10T13:22:45;2.22;;;1.95;;
40515;SDS011;26216;53.724;9.898;2023-05-10T13:25:11;2.40;;;2.20;;
40515;SDS011;26216;53.724;9.898;2023-05-10T13:27:38;2.85;;;2.55;;
40515;SDS011;26216;53.724;9.898;2023-05-10T13:30:05;2.80;;;2.50;;
40515;SDS011;26216;53.724;9.898;2023-05-10T13:32:36;3.05;;;2.38;;
40515;SDS011;26216;53.724;9.898;2023-05-10T13:35:03;2.38;;;2.17;;
40515;SDS011;26216;53.724;9.898;2023-05-10T13:37:30;3.10;;;2.17;;
40515;SDS011;26216;53.724;9.898;2023-05-10T13:39:57;3.25;;;2.60;;
40515;SDS011;26216;53.724;9.898;2023-05-10T13:42:23;2.97;;;2.67;;
40515;SDS011;26216;53.724;9.898;2023-05-10T13:44:49;2.33;;;2.00;;
40515;SDS011;26216;53.724;9.898;2023-05-10T13:47:15;2.90;;;2.60;;
40515;SDS011;26216;53.724;9.898;2023-05-10T13:49:42;3.35;;;2.30;;
40515;SDS011;26216;53.724;9.898;2023-05-10T13:52:08;2.80;;;2.45;;
40515;SDS011;26216;53.724;9.898;2023-05-10T13:54:38;2.05;;;1.77;;
40515;SDS011;26216;53.724;9.898;2023-05-10T13:57:04;2.38;;;1.70;;
40515;SDS011;26216;53.724;9.898;2023-05-10T13:59:31;2.38;;;2.00;;
40515;SDS011;26216;53.724;9.898;2023-05-10T14:01:58;3.15;;;2.10;;
40515;SDS011;26216;53.724;9.898;2023-05-10T14:04:24;2.30;;;2.10;;
40515;SDS011;26216;53.724;9.898;2023-05-10T14:06:50;2.40;;;1.92;;
40515;SDS011;26216;53.724;9.898;2023-05-10T14:09:17;3.33;;;2.33;;
40515;SDS011;26216;53.724;9.898;2023-05-10T14:11:43;2.95;;;2.00;;
40515;SDS011;26216;53.724;9.898;2023-05-10T14:14:10;2.47;;;1.95;;
40515;SDS011;26216;53.724;9.898;2023-05-10T14:16:38;2.00;;;1.75;;
40515;SDS011;26216;53.724;9.898;2023-05-10T14:19:06;2.17;;;1.70;;
40515;SDS011;26216;53.724;9.898;2023-05-10T14:21:32;2.30;;;1.75;;
40515;SDS011;26216;53.724;9.898;2023-05-10T14:23:59;2.47;;;1.98;;
40515;SDS011;26216;53.724;9.898;2023-05-10T14:26:25;2.50;;;1.75;;
40515;SDS011;26216;53.724;9.898;2023-05-10T14:28:52;2.72;;;1.90;;
40515;SDS011;26216;53.724;9.898;2023-05-10T14:31:19;2.70;;;2.13;;
40515;SDS011;26216;53.724;9.898;2023-05-10T14:33:46;2.25;;;1.95;;
40515;SDS011;26216;53.724;9.898;2023-05-10T14:36:12;3.08;;;2.35;;
40515;SDS011;26216;53.724;9.898;2023-05-10T14:38:39;2.80;;;2.25;;
40515;SDS011;26216;53.724;9.898;2023-05-10T14:41:05;3.00;;;2.10;;
40515;SDS011;26216;53.724;9.898;2023-05-10T14:43:31;3.28;;;2.45;;
40515;SDS011;26216;53.724;9.898;2023-05-10T14:45:57;3.28;;;2.33;;
40515;SDS011;26216;53.724;9.898;2023-05-10T14:48:23;2.22;;;1.98;;
40515;SDS011;26216;53.724;9.898;2023-05-10T14:50:49;2.72;;;2.30;;
40515;SDS011;26216;53.724;9.898;2023-05-10T14:53:17;3.03;;;2.17;;
40515;SDS011;26216;53.724;9.898;2023-05-10T14:55:43;3.53;;;2.20;;
40515;SDS011;26216;53.724;9.898;2023-05-10T14:58:09;2.70;;;2.25;;
40515;SDS011;26216;53.724;9.898;2023-05-10T15:00:35;3.40;;;2.25;;
40515;SDS011;26216;53.724;9.898;2023-05-10T15:03:01;2.90;;;2.60;;
40515;SDS011;26216;53.724;9.898;2023-05-10T15:05:28;2.70;;;2.40;;
40515;SDS011;26216;53.724;9.898;2023-05-10T15:07:54;2.58;;;2.30;;
40515;SDS011;26216;53.724;9.898;2023-05-10T15:10:21;2.95;;;2.65;;
40515;SDS011;26216;53.724;9.898;2023-05-10T15:12:47;3.00;;;2.55;;
40515;SDS011;26216;53.724;9.898;2023-05-10T15:15:13;2.30;;;2.05;;
40515;SDS011;26216;53.724;9.898;2023-05-10T15:17:40;3.58;;;2.15;;
40515;SDS011;26216;53.724;9.898;2023-05-10T15:20:06;3.38;;;2.17;;
40515;SDS011;26216;53.724;9.898;2023-05-10T15:22:34;2.75;;;2.28;;
40515;SDS011;26216;53.724;9.898;2023-05-10T15:25:00;2.60;;;1.95;;
40515;SDS011;26216;53.724;9.898;2023-05-10T15:27:27;2.60;;;2.03;;
40515;SDS011;26216;53.724;9.898;2023-05-10T15:29:53;2.30;;;2.00;;
40515;SDS011;26216;53.724;9.898;2023-05-10T15:32:19;2.40;;;2.15;;